Pagina principale
METAR-TAF:

METAR-TAF

Aeroporti :

Aeroporto di Recife-Guararapes-Gilberto Freyre

Recife, Pernambuco, Brasile

latitudine: 08-08S, longitudine: 034-55W, altezza: 19 m

Osservazione

Il bollettino è stato emesso 52 minuti fa, alle 05:00 UTC
Vento 5 kt da nord/nord-est
Temperature 26°C
Umidità 79%
Pressione 1011 hPa
Visibilità 10 km o più
Nuvoloso ad un'altezza di 2000 ft
Nuvoloso ad un'altezza di 5300 ft

METAR: SBRF 160500Z 02005KT 9999 BKN020 BKN053 26/22 Q1011

Ora: 02:52 (05:52 UTC)

Previsione

Il bollettino è stato emesso 3 ore e 52 minuti fa, alle 02:00 UTC
Previsione valida dal 16 alle 06 UTC al 17 alle 06 UTC
Vento 7 kt da est
Visibilità: 9000 m
Nubi sparse ad un'altezza di 2200 ft

TAF: SBRF 160200Z 1606/1706 08007KT 9000 SCT022 TN24/1608Z TX28/1615Z RMK PBO

Osservazioni e previsioni meteorologiche di più di 4000 aeroporti (messaggi METAR e TAF).

Le stazioni disponibili sono rappresentate dai dischi gialli e rossi sulla carta.

Puntare il mouse per vedere il nome della stazione.

Clicca sopra per visualizzare le osservazioni e previsioni meteorologiche.

Per cambiare la mappa : fare clic sui pulsanti verdi con una croce nera per ingrandire, il pulsante verde con un trattino per diminuire, o sulla freccia verde per le mappe adiacenti.


METAR-TAF: